Terminal Aerodrome Forecast
Issued by NWS

Home | Current Version | Previous Version | Text Only | Print | Product List | Glossary On
Versions: 1 2 3 4 5 6 7 8 9 10 11 12 13 14 15 16 17 18 19
774
FTUS41 KBTV 061735
TAFRUT
TAF
KRUT 061735Z 0618/0718 00000KT P6SM SCT015
      TEMPO 0618/0620 BKN015
     FM070300 12005KT P6SM VCSH OVC070
     FM070700 13006KT 1SM -SN BR OVC020
     FM071400 14006KT 5SM BR VCSH OVC015=

USA.gov is the U.S. government's official web portal to all federal, state and local government web resources and services.